sensor_id;sensor_type;location;lat;lon;timestamp;P1;durP1;ratioP1;P2;durP2;ratioP2
75847;SDS011;65750;47.540;19.090;2023-03-01T00:01:10;10.07;;;4.35;;
75847;SDS011;65750;47.540;19.090;2023-03-01T00:03:38;8.77;;;4.33;;
75847;SDS011;65750;47.540;19.090;2023-03-01T00:06:06;7.55;;;4.12;;
75847;SDS011;65750;47.540;19.090;2023-03-01T00:08:34;9.45;;;4.43;;
75847;SDS011;65750;47.540;19.090;2023-03-01T00:11:02;11.30;;;4.22;;
75847;SDS011;65750;47.540;19.090;2023-03-01T00:13:30;9.63;;;4.40;;
75847;SDS011;65750;47.540;19.090;2023-03-01T00:15:57;8.60;;;4.53;;
75847;SDS011;65750;47.540;19.090;2023-03-01T00:18:24;8.80;;;4.62;;
75847;SDS011;65750;47.540;19.090;2023-03-01T00:20:52;9.10;;;4.57;;
75847;SDS011;65750;47.540;19.090;2023-03-01T00:23:21;11.55;;;5.00;;
75847;SDS011;65750;47.540;19.090;2023-03-01T00:25:49;9.18;;;4.57;;
75847;SDS011;65750;47.540;19.090;2023-03-01T00:28:16;8.97;;;4.10;;
75847;SDS011;65750;47.540;19.090;2023-03-01T00:30:45;8.10;;;4.40;;
75847;SDS011;65750;47.540;19.090;2023-03-01T00:33:13;8.73;;;4.50;;
75847;SDS011;65750;47.540;19.090;2023-03-01T00:35:40;8.75;;;4.57;;
75847;SDS011;65750;47.540;19.090;2023-03-01T00:38:07;8.13;;;4.30;;
75847;SDS011;65750;47.540;19.090;2023-03-01T00:40:36;8.80;;;4.67;;
75847;SDS011;65750;47.540;19.090;2023-03-01T00:43:03;9.25;;;4.80;;
75847;SDS011;65750;47.540;19.090;2023-03-01T00:45:32;8.63;;;4.72;;
75847;SDS011;65750;47.540;19.090;2023-03-01T00:47:59;8.18;;;4.55;;
75847;SDS011;65750;47.540;19.090;2023-03-01T00:50:27;7.85;;;4.50;;
75847;SDS011;65750;47.540;19.090;2023-03-01T00:52:54;6.50;;;4.30;;
75847;SDS011;65750;47.540;19.090;2023-03-01T00:55:21;8.23;;;4.85;;
75847;SDS011;65750;47.540;19.090;2023-03-01T00:57:50;7.97;;;4.05;;
75847;SDS011;65750;47.540;19.090;2023-03-01T01:00:17;8.32;;;4.90;;
75847;SDS011;65750;47.540;19.090;2023-03-01T01:02:46;7.97;;;4.65;;
75847;SDS011;65750;47.540;19.090;2023-03-01T01:05:14;8.10;;;4.67;;
75847;SDS011;65750;47.540;19.090;2023-03-01T01:07:46;8.13;;;4.10;;
75847;SDS011;65750;47.540;19.090;2023-03-01T01:10:14;9.10;;;4.50;;
75847;SDS011;65750;47.540;19.090;2023-03-01T01:12:43;8.32;;;4.50;;
75847;SDS011;65750;47.540;19.090;2023-03-01T01:15:12;8.45;;;4.50;;
75847;SDS011;65750;47.540;19.090;2023-03-01T01:17:41;7.87;;;4.33;;
75847;SDS011;65750;47.540;19.090;2023-03-01T01:20:09;7.62;;;4.15;;
75847;SDS011;65750;47.540;19.090;2023-03-01T01:22:37;10.10;;;4.53;;
75847;SDS011;65750;47.540;19.090;2023-03-01T01:25:04;8.15;;;4.65;;
75847;SDS011;65750;47.540;19.090;2023-03-01T01:27:33;7.60;;;4.20;;
75847;SDS011;65750;47.540;19.090;2023-03-01T01:30:00;7.67;;;4.67;;
75847;SDS011;65750;47.540;19.090;2023-03-01T01:32:29;8.35;;;4.60;;
75847;SDS011;65750;47.540;19.090;2023-03-01T01:34:56;8.18;;;4.53;;
75847;SDS011;65750;47.540;19.090;2023-03-01T01:37:23;7.60;;;4.70;;
75847;SDS011;65750;47.540;19.090;2023-03-01T01:39:56;6.72;;;3.92;;
75847;SDS011;65750;47.540;19.090;2023-03-01T01:42:25;6.70;;;4.17;;
75847;SDS011;65750;47.540;19.090;2023-03-01T01:48:04;7.25;;;4.30;;
75847;SDS011;65750;47.540;19.090;2023-03-01T01:50:33;8.15;;;4.65;;
75847;SDS011;65750;47.540;19.090;2023-03-01T01:53:05;7.80;;;4.50;;
75847;SDS011;65750;47.540;19.090;2023-03-01T01:55:35;8.03;;;4.70;;
75847;SDS011;65750;47.540;19.090;2023-03-01T01:58:04;7.55;;;4.72;;
75847;SDS011;65750;47.540;19.090;2023-03-01T02:00:33;8.38;;;5.12;;
75847;SDS011;65750;47.540;19.090;2023-03-01T02:03:02;6.85;;;4.57;;
75847;SDS011;65750;47.540;19.090;2023-03-01T02:05:33;7.22;;;4.70;;
75847;SDS011;65750;47.540;19.090;2023-03-01T02:08:04;8.03;;;4.50;;
75847;SDS011;65750;47.540;19.090;2023-03-01T02:10:31;7.28;;;4.45;;
75847;SDS011;65750;47.540;19.090;2023-03-01T02:12:59;7.62;;;4.15;;
75847;SDS011;65750;47.540;19.090;2023-03-01T02:15:28;7.55;;;4.20;;
75847;SDS011;65750;47.540;19.090;2023-03-01T02:17:58;7.45;;;4.20;;
75847;SDS011;65750;47.540;19.090;2023-03-01T02:20:29;9.00;;;4.80;;
75847;SDS011;65750;47.540;19.090;2023-03-01T02:23:01;7.20;;;4.40;;
75847;SDS011;65750;47.540;19.090;2023-03-01T02:25:32;8.48;;;4.35;;
75847;SDS011;65750;47.540;19.090;2023-03-01T02:28:04;8.05;;;4.15;;
75847;SDS011;65750;47.540;19.090;2023-03-01T02:30:36;7.70;;;4.50;;
75847;SDS011;65750;47.540;19.090;2023-03-01T02:33:24;7.83;;;4.40;;
75847;SDS011;65750;47.540;19.090;2023-03-01T02:35:51;7.37;;;4.43;;
75847;SDS011;65750;47.540;19.090;2023-03-01T02:38:19;7.72;;;4.40;;
75847;SDS011;65750;47.540;19.090;2023-03-01T02:40:48;8.70;;;4.35;;
75847;SDS011;65750;47.540;19.090;2023-03-01T02:43:16;8.93;;;4.57;;
75847;SDS011;65750;47.540;19.090;2023-03-01T02:45:48;6.63;;;4.00;;
75847;SDS011;65750;47.540;19.090;2023-03-01T02:48:17;7.60;;;5.10;;
75847;SDS011;65750;47.540;19.090;2023-03-01T02:50:47;8.05;;;4.85;;
75847;SDS011;65750;47.540;19.090;2023-03-01T02:53:22;7.30;;;4.20;;
75847;SDS011;65750;47.540;19.090;2023-03-01T02:55:52;6.95;;;4.30;;
75847;SDS011;65750;47.540;19.090;2023-03-01T02:58:20;7.07;;;4.20;;
75847;SDS011;65750;47.540;19.090;2023-03-01T03:00:50;7.80;;;4.65;;
75847;SDS011;65750;47.540;19.090;2023-03-01T03:03:17;6.57;;;4.32;;
75847;SDS011;65750;47.540;19.090;2023-03-01T03:05:46;8.30;;;5.00;;
75847;SDS011;65750;47.540;19.090;2023-03-01T03:08:14;6.10;;;4.25;;
75847;SDS011;65750;47.540;19.090;2023-03-01T03:10:49;7.80;;;4.40;;
75847;SDS011;65750;47.540;19.090;2023-03-01T03:13:17;7.07;;;4.57;;
75847;SDS011;65750;47.540;19.090;2023-03-01T03:15:45;7.75;;;4.70;;
75847;SDS011;65750;47.540;19.090;2023-03-01T03:18:14;7.62;;;4.18;;
75847;SDS011;65750;47.540;19.090;2023-03-01T03:20:43;7.57;;;4.60;;
75847;SDS011;65750;47.540;19.090;2023-03-01T03:23:12;7.33;;;4.60;;
75847;SDS011;65750;47.540;19.090;2023-03-01T03:25:39;7.12;;;4.62;;
75847;SDS011;65750;47.540;19.090;2023-03-01T03:28:06;6.35;;;4.20;;
75847;SDS011;65750;47.540;19.090;2023-03-01T03:30:36;7.80;;;4.70;;
75847;SDS011;65750;47.540;19.090;2023-03-01T03:33:05;7.12;;;4.37;;
75847;SDS011;65750;47.540;19.090;2023-03-01T03:35:38;7.10;;;4.63;;
75847;SDS011;65750;47.540;19.090;2023-03-01T03:38:08;7.25;;;4.18;;
75847;SDS011;65750;47.540;19.090;2023-03-01T03:40:42;6.47;;;4.57;;
75847;SDS011;65750;47.540;19.090;2023-03-01T03:43:11;7.90;;;4.90;;
75847;SDS011;65750;47.540;19.090;2023-03-01T03:45:40;7.55;;;4.53;;
75847;SDS011;65750;47.540;19.090;2023-03-01T03:48:08;7.43;;;4.47;;
75847;SDS011;65750;47.540;19.090;2023-03-01T03:50:37;6.50;;;4.20;;
75847;SDS011;65750;47.540;19.090;2023-03-01T03:53:06;7.37;;;4.78;;
75847;SDS011;65750;47.540;19.090;2023-03-01T03:55:35;7.93;;;4.95;;
75847;SDS011;65750;47.540;19.090;2023-03-01T03:58:05;7.60;;;4.25;;
75847;SDS011;65750;47.540;19.090;2023-03-01T04:00:33;7.03;;;4.43;;
75847;SDS011;65750;47.540;19.090;2023-03-01T04:03:01;6.32;;;4.18;;
75847;SDS011;65750;47.540;19.090;2023-03-01T04:05:29;6.70;;;4.37;;
75847;SDS011;65750;47.540;19.090;2023-03-01T04:07:58;7.00;;;4.87;;
75847;SDS011;65750;47.540;19.090;2023-03-01T04:10:29;7.43;;;4.70;;
75847;SDS011;65750;47.540;19.090;2023-03-01T04:12:57;7.00;;;4.30;;
75847;SDS011;65750;47.540;19.090;2023-03-01T04:15:24;6.65;;;4.28;;
75847;SDS011;65750;47.540;19.090;2023-03-01T04:17:53;7.07;;;4.30;;
75847;SDS011;65750;47.540;19.090;2023-03-01T04:20:21;7.35;;;4.65;;
75847;SDS011;65750;47.540;19.090;2023-03-01T04:22:51;6.47;;;4.30;;
75847;SDS011;65750;47.540;19.090;2023-03-01T04:25:20;7.20;;;4.87;;
75847;SDS011;65750;47.540;19.090;2023-03-01T04:27:50;6.20;;;4.03;;
75847;SDS011;65750;47.540;19.090;2023-03-01T04:30:17;6.97;;;4.62;;
75847;SDS011;65750;47.540;19.090;2023-03-01T04:32:45;8.00;;;4.57;;
75847;SDS011;65750;47.540;19.090;2023-03-01T04:35:12;7.32;;;4.45;;
75847;SDS011;65750;47.540;19.090;2023-03-01T04:37:39;7.67;;;4.57;;
75847;SDS011;65750;47.540;19.090;2023-03-01T04:40:07;6.47;;;3.97;;
75847;SDS011;65750;47.540;19.090;2023-03-01T04:42:42;6.22;;;4.60;;
75847;SDS011;65750;47.540;19.090;2023-03-01T04:45:10;7.60;;;3.95;;
75847;SDS011;65750;47.540;19.090;2023-03-01T04:47:39;6.40;;;4.30;;
75847;SDS011;65750;47.540;19.090;2023-03-01T04:50:08;6.63;;;4.20;;
75847;SDS011;65750;47.540;19.090;2023-03-01T04:52:36;7.32;;;4.30;;
75847;SDS011;65750;47.540;19.090;2023-03-01T04:55:04;6.47;;;4.50;;
75847;SDS011;65750;47.540;19.090;2023-03-01T04:57:32;7.28;;;4.68;;
75847;SDS011;65750;47.540;19.090;2023-03-01T05:00:01;6.15;;;4.00;;
75847;SDS011;65750;47.540;19.090;2023-03-01T05:02:45;7.07;;;4.33;;
75847;SDS011;65750;47.540;19.090;2023-03-01T05:05:22;6.50;;;4.70;;
75847;SDS011;65750;47.540;19.090;2023-03-01T05:07:51;6.25;;;4.15;;
75847;SDS011;65750;47.540;19.090;2023-03-01T05:10:20;6.43;;;4.20;;
75847;SDS011;65750;47.540;19.090;2023-03-01T05:12:47;7.03;;;4.40;;
75847;SDS011;65750;47.540;19.090;2023-03-01T05:15:16;6.97;;;4.20;;
75847;SDS011;65750;47.540;19.090;2023-03-01T05:17:43;6.40;;;4.25;;
75847;SDS011;65750;47.540;19.090;2023-03-01T05:20:11;7.20;;;4.43;;
75847;SDS011;65750;47.540;19.090;2023-03-01T05:22:38;6.30;;;4.43;;
75847;SDS011;65750;47.540;19.090;2023-03-01T05:25:06;7.00;;;4.43;;
75847;SDS011;65750;47.540;19.090;2023-03-01T05:27:33;5.97;;;4.17;;
75847;SDS011;65750;47.540;19.090;2023-03-01T05:30:01;6.00;;;4.32;;
75847;SDS011;65750;47.540;19.090;2023-03-01T05:32:41;6.57;;;4.35;;
75847;SDS011;65750;47.540;19.090;2023-03-01T05:35:10;7.22;;;4.45;;
75847;SDS011;65750;47.540;19.090;2023-03-01T05:37:40;6.68;;;4.35;;
75847;SDS011;65750;47.540;19.090;2023-03-01T05:40:09;7.00;;;4.80;;
75847;SDS011;65750;47.540;19.090;2023-03-01T05:42:42;6.55;;;4.03;;
75847;SDS011;65750;47.540;19.090;2023-03-01T05:45:10;6.45;;;4.20;;
75847;SDS011;65750;47.540;19.090;2023-03-01T05:47:37;6.20;;;4.35;;
75847;SDS011;65750;47.540;19.090;2023-03-01T05:50:12;6.87;;;4.60;;
75847;SDS011;65750;47.540;19.090;2023-03-01T05:52:43;6.20;;;4.33;;
75847;SDS011;65750;47.540;19.090;2023-03-01T05:55:12;6.72;;;4.25;;
75847;SDS011;65750;47.540;19.090;2023-03-01T05:57:39;5.87;;;4.10;;
75847;SDS011;65750;47.540;19.090;2023-03-01T06:00:06;6.50;;;4.20;;
75847;SDS011;65750;47.540;19.090;2023-03-01T06:02:37;5.78;;;4.10;;
75847;SDS011;65750;47.540;19.090;2023-03-01T06:05:06;6.67;;;4.60;;
75847;SDS011;65750;47.540;19.090;2023-03-01T06:07:35;6.78;;;4.37;;
75847;SDS011;65750;47.540;19.090;2023-03-01T06:10:03;6.68;;;4.40;;
75847;SDS011;65750;47.540;19.090;2023-03-01T06:12:31;6.22;;;4.07;;
75847;SDS011;65750;47.540;19.090;2023-03-01T06:14:58;6.85;;;4.10;;
75847;SDS011;65750;47.540;19.090;2023-03-01T06:17:25;5.80;;;4.07;;
75847;SDS011;65750;47.540;19.090;2023-03-01T06:19:53;5.78;;;3.78;;
75847;SDS011;65750;47.540;19.090;2023-03-01T06:22:20;7.28;;;4.10;;
75847;SDS011;65750;47.540;19.090;2023-03-01T06:24:49;6.80;;;4.20;;
75847;SDS011;65750;47.540;19.090;2023-03-01T06:27:16;6.35;;;4.50;;
75847;SDS011;65750;47.540;19.090;2023-03-01T06:29:43;6.40;;;4.10;;
75847;SDS011;65750;47.540;19.090;2023-03-01T06:32:10;7.25;;;4.40;;
75847;SDS011;65750;47.540;19.090;2023-03-01T06:34:38;5.97;;;4.32;;
75847;SDS011;65750;47.540;19.090;2023-03-01T06:37:05;6.95;;;4.35;;
75847;SDS011;65750;47.540;19.090;2023-03-01T06:39:33;6.32;;;4.43;;
75847;SDS011;65750;47.540;19.090;2023-03-01T06:42:02;6.63;;;4.30;;
75847;SDS011;65750;47.540;19.090;2023-03-01T06:44:29;11.65;;;6.78;;
75847;SDS011;65750;47.540;19.090;2023-03-01T06:46:56;11.25;;;6.87;;
75847;SDS011;65750;47.540;19.090;2023-03-01T06:49:24;10.50;;;6.93;;
75847;SDS011;65750;47.540;19.090;2023-03-01T06:51:51;11.12;;;6.82;;
75847;SDS011;65750;47.540;19.090;2023-03-01T06:54:18;12.47;;;6.90;;
75847;SDS011;65750;47.540;19.090;2023-03-01T06:56:47;12.52;;;7.47;;
75847;SDS011;65750;47.540;19.090;2023-03-01T06:59:17;12.27;;;7.65;;
75847;SDS011;65750;47.540;19.090;2023-03-01T07:01:44;12.88;;;7.60;;
75847;SDS011;65750;47.540;19.090;2023-03-01T07:04:12;13.98;;;8.48;;
75847;SDS011;65750;47.540;19.090;2023-03-01T07:06:39;19.00;;;9.40;;
75847;SDS011;65750;47.540;19.090;2023-03-01T07:09:06;13.93;;;8.40;;
75847;SDS011;65750;47.540;19.090;2023-03-01T07:11:34;11.85;;;6.80;;
75847;SDS011;65750;47.540;19.090;2023-03-01T07:14:01;10.27;;;6.80;;
75847;SDS011;65750;47.540;19.090;2023-03-01T07:16:30;10.95;;;6.43;;
75847;SDS011;65750;47.540;19.090;2023-03-01T07:18:57;10.70;;;5.97;;
75847;SDS011;65750;47.540;19.090;2023-03-01T07:21:24;11.40;;;6.15;;
75847;SDS011;65750;47.540;19.090;2023-03-01T07:23:51;11.60;;;6.00;;
75847;SDS011;65750;47.540;19.090;2023-03-01T07:26:18;11.10;;;5.90;;
75847;SDS011;65750;47.540;19.090;2023-03-01T07:28:45;9.70;;;5.57;;
75847;SDS011;65750;47.540;19.090;2023-03-01T07:31:13;13.60;;;6.17;;
75847;SDS011;65750;47.540;19.090;2023-03-01T07:33:41;11.02;;;6.05;;
75847;SDS011;65750;47.540;19.090;2023-03-01T07:36:08;10.95;;;5.47;;
75847;SDS011;65750;47.540;19.090;2023-03-01T07:38:36;13.60;;;6.45;;
75847;SDS011;65750;47.540;19.090;2023-03-01T07:41:03;10.50;;;5.60;;
75847;SDS011;65750;47.540;19.090;2023-03-01T07:43:31;9.17;;;5.40;;
75847;SDS011;65750;47.540;19.090;2023-03-01T07:45:58;8.60;;;4.70;;
75847;SDS011;65750;47.540;19.090;2023-03-01T07:48:26;7.75;;;4.60;;
75847;SDS011;65750;47.540;19.090;2023-03-01T07:50:55;9.32;;;5.20;;
75847;SDS011;65750;47.540;19.090;2023-03-01T07:53:24;10.05;;;5.10;;
75847;SDS011;65750;47.540;19.090;2023-03-01T07:56:00;8.57;;;4.90;;
75847;SDS011;65750;47.540;19.090;2023-03-01T07:58:27;19.52;;;7.30;;
75847;SDS011;65750;47.540;19.090;2023-03-01T08:00:55;22.52;;;7.15;;
75847;SDS011;65750;47.540;19.090;2023-03-01T08:03:22;19.73;;;7.37;;
75847;SDS011;65750;47.540;19.090;2023-03-01T08:05:49;17.30;;;7.07;;
75847;SDS011;65750;47.540;19.090;2023-03-01T08:08:17;16.30;;;6.17;;
75847;SDS011;65750;47.540;19.090;2023-03-01T08:10:45;15.52;;;6.15;;
75847;SDS011;65750;47.540;19.090;2023-03-01T08:13:12;13.43;;;5.95;;
75847;SDS011;65750;47.540;19.090;2023-03-01T08:15:39;11.70;;;5.68;;
75847;SDS011;65750;47.540;19.090;2023-03-01T08:18:06;12.80;;;5.55;;
75847;SDS011;65750;47.540;19.090;2023-03-01T08:20:33;13.30;;;5.43;;
75847;SDS011;65750;47.540;19.090;2023-03-01T08:23:00;10.43;;;4.82;;
75847;SDS011;65750;47.540;19.090;2023-03-01T08:25:29;10.77;;;4.20;;
75847;SDS011;65750;47.540;19.090;2023-03-01T08:27:56;10.48;;;4.70;;
75847;SDS011;65750;47.540;19.090;2023-03-01T08:30:23;9.57;;;4.60;;
75847;SDS011;65750;47.540;19.090;2023-03-01T08:32:51;9.83;;;4.30;;
75847;SDS011;65750;47.540;19.090;2023-03-01T08:35:18;8.20;;;3.90;;
75847;SDS011;65750;47.540;19.090;2023-03-01T08:37:46;7.93;;;4.00;;
75847;SDS011;65750;47.540;19.090;2023-03-01T08:40:13;7.82;;;3.83;;
75847;SDS011;65750;47.540;19.090;2023-03-01T08:42:42;7.22;;;3.80;;
75847;SDS011;65750;47.540;19.090;2023-03-01T08:45:09;7.53;;;3.53;;
75847;SDS011;65750;47.540;19.090;2023-03-01T08:47:38;7.18;;;3.80;;
75847;SDS011;65750;47.540;19.090;2023-03-01T08:50:05;8.95;;;3.95;;
75847;SDS011;65750;47.540;19.090;2023-03-01T08:52:33;5.97;;;2.95;;
75847;SDS011;65750;47.540;19.090;2023-03-01T08:55:00;6.50;;;3.17;;
75847;SDS011;65750;47.540;19.090;2023-03-01T08:57:28;5.37;;;3.20;;
75847;SDS011;65750;47.540;19.090;2023-03-01T08:59:56;7.50;;;3.20;;
75847;SDS011;65750;47.540;19.090;2023-03-01T09:02:23;6.55;;;3.35;;
75847;SDS011;65750;47.540;19.090;2023-03-01T09:04:50;7.65;;;3.42;;
75847;SDS011;65750;47.540;19.090;2023-03-01T09:07:18;4.90;;;2.92;;
75847;SDS011;65750;47.540;19.090;2023-03-01T09:09:45;5.17;;;3.20;;
75847;SDS011;65750;47.540;19.090;2023-03-01T09:12:12;4.45;;;2.67;;
75847;SDS011;65750;47.540;19.090;2023-03-01T09:14:39;5.00;;;2.92;;
75847;SDS011;65750;47.540;19.090;2023-03-01T09:17:09;6.30;;;3.05;;
75847;SDS011;65750;47.540;19.090;2023-03-01T09:19:36;5.60;;;2.97;;
75847;SDS011;65750;47.540;19.090;2023-03-01T09:22:03;4.93;;;2.80;;
75847;SDS011;65750;47.540;19.090;2023-03-01T09:24:31;5.00;;;2.90;;
75847;SDS011;65750;47.540;19.090;2023-03-01T09:26:58;5.65;;;2.72;;
75847;SDS011;65750;47.540;19.090;2023-03-01T09:29:25;3.87;;;2.40;;
75847;SDS011;65750;47.540;19.090;2023-03-01T09:31:52;5.12;;;2.65;;
75847;SDS011;65750;47.540;19.090;2023-03-01T09:34:22;5.03;;;2.50;;
75847;SDS011;65750;47.540;19.090;2023-03-01T09:36:49;5.40;;;2.50;;
75847;SDS011;65750;47.540;19.090;2023-03-01T09:39:17;4.50;;;2.40;;
75847;SDS011;65750;47.540;19.090;2023-03-01T09:41:50;6.12;;;2.30;;
75847;SDS011;65750;47.540;19.090;2023-03-01T09:44:29;5.43;;;2.40;;
75847;SDS011;65750;47.540;19.090;2023-03-01T09:46:59;3.57;;;1.90;;
75847;SDS011;65750;47.540;19.090;2023-03-01T09:49:29;3.85;;;2.08;;
75847;SDS011;65750;47.540;19.090;2023-03-01T09:51:59;4.30;;;2.30;;
75847;SDS011;65750;47.540;19.090;2023-03-01T09:54:28;4.28;;;2.45;;
75847;SDS011;65750;47.540;19.090;2023-03-01T09:57:05;4.28;;;2.47;;
75847;SDS011;65750;47.540;19.090;2023-03-01T09:59:39;4.70;;;2.50;;
75847;SDS011;65750;47.540;19.090;2023-03-01T10:02:21;4.95;;;2.30;;
75847;SDS011;65750;47.540;19.090;2023-03-01T10:04:55;4.15;;;2.30;;
75847;SDS011;65750;47.540;19.090;2023-03-01T10:07:30;5.07;;;2.10;;
75847;SDS011;65750;47.540;19.090;2023-03-01T10:10:00;3.50;;;2.22;;
75847;SDS011;65750;47.540;19.090;2023-03-01T10:12:32;4.13;;;2.37;;
75847;SDS011;65750;47.540;19.090;2023-03-01T10:15:04;3.92;;;2.60;;
75847;SDS011;65750;47.540;19.090;2023-03-01T10:17:36;4.07;;;2.40;;
75847;SDS011;65750;47.540;19.090;2023-03-01T10:20:14;4.07;;;2.45;;
75847;SDS011;65750;47.540;19.090;2023-03-01T10:22:44;4.12;;;2.70;;
75847;SDS011;65750;47.540;19.090;2023-03-01T10:25:17;4.63;;;2.80;;
75847;SDS011;65750;47.540;19.090;2023-03-01T10:27:51;4.03;;;2.50;;
75847;SDS011;65750;47.540;19.090;2023-03-01T10:30:20;3.80;;;2.50;;
75847;SDS011;65750;47.540;19.090;2023-03-01T10:32:49;3.90;;;2.30;;
75847;SDS011;65750;47.540;19.090;2023-03-01T10:35:20;4.47;;;2.62;;
75847;SDS011;65750;47.540;19.090;2023-03-01T10:37:58;3.87;;;2.60;;
75847;SDS011;65750;47.540;19.090;2023-03-01T10:40:30;4.50;;;2.55;;
75847;SDS011;65750;47.540;19.090;2023-03-01T10:42:58;5.28;;;2.55;;
75847;SDS011;65750;47.540;19.090;2023-03-01T10:45:30;5.15;;;2.85;;
75847;SDS011;65750;47.540;19.090;2023-03-01T10:48:03;5.50;;;2.70;;
75847;SDS011;65750;47.540;19.090;2023-03-01T10:50:34;4.23;;;2.73;;
75847;SDS011;65750;47.540;19.090;2023-03-01T10:53:03;4.82;;;2.67;;
75847;SDS011;65750;47.540;19.090;2023-03-01T10:55:31;4.95;;;2.92;;
75847;SDS011;65750;47.540;19.090;2023-03-01T10:58:08;4.55;;;2.78;;
75847;SDS011;65750;47.540;19.090;2023-03-01T11:00:45;4.82;;;2.70;;
75847;SDS011;65750;47.540;19.090;2023-03-01T11:03:16;4.20;;;2.70;;
75847;SDS011;65750;47.540;19.090;2023-03-01T11:05:54;6.12;;;3.00;;
75847;SDS011;65750;47.540;19.090;2023-03-01T11:08:36;4.93;;;3.05;;
75847;SDS011;65750;47.540;19.090;2023-03-01T11:11:16;5.00;;;2.83;;
75847;SDS011;65750;47.540;19.090;2023-03-01T11:13:50;5.18;;;2.87;;
75847;SDS011;65750;47.540;19.090;2023-03-01T11:16:23;4.33;;;2.70;;
75847;SDS011;65750;47.540;19.090;2023-03-01T11:18:56;6.15;;;3.33;;
75847;SDS011;65750;47.540;19.090;2023-03-01T11:21:25;6.22;;;2.90;;
75847;SDS011;65750;47.540;19.090;2023-03-01T11:23:54;5.18;;;3.42;;
75847;SDS011;65750;47.540;19.090;2023-03-01T11:26:21;4.90;;;3.03;;
75847;SDS011;65750;47.540;19.090;2023-03-01T11:28:50;5.23;;;2.90;;
75847;SDS011;65750;47.540;19.090;2023-03-01T11:31:20;5.00;;;3.20;;
75847;SDS011;65750;47.540;19.090;2023-03-01T11:33:50;5.28;;;3.35;;
75847;SDS011;65750;47.540;19.090;2023-03-01T11:36:23;4.80;;;3.25;;
75847;SDS011;65750;47.540;19.090;2023-03-01T11:38:55;4.65;;;2.92;;
75847;SDS011;65750;47.540;19.090;2023-03-01T11:41:23;5.70;;;3.17;;
75847;SDS011;65750;47.540;19.090;2023-03-01T11:43:53;5.95;;;3.65;;
75847;SDS011;65750;47.540;19.090;2023-03-01T11:46:29;4.80;;;3.20;;
75847;SDS011;65750;47.540;19.090;2023-03-01T11:49:14;5.47;;;3.80;;
75847;SDS011;65750;47.540;19.090;2023-03-01T11:51:51;6.85;;;3.83;;
75847;SDS011;65750;47.540;19.090;2023-03-01T11:54:26;4.60;;;3.27;;
75847;SDS011;65750;47.540;19.090;2023-03-01T11:57:01;4.82;;;3.28;;
75847;SDS011;65750;47.540;19.090;2023-03-01T11:59:42;5.30;;;3.20;;
75847;SDS011;65750;47.540;19.090;2023-03-01T12:02:27;5.62;;;3.65;;
75847;SDS011;65750;47.540;19.090;2023-03-01T12:05:36;5.05;;;3.35;;
75847;SDS011;65750;47.540;19.090;2023-03-01T12:08:14;4.83;;;3.20;;
75847;SDS011;65750;47.540;19.090;2023-03-01T12:10:47;6.00;;;3.87;;
75847;SDS011;65750;47.540;19.090;2023-03-01T12:13:27;5.47;;;3.35;;
75847;SDS011;65750;47.540;19.090;2023-03-01T12:16:30;5.43;;;3.42;;
75847;SDS011;65750;47.540;19.090;2023-03-01T12:19:08;5.85;;;3.42;;
75847;SDS011;65750;47.540;19.090;2023-03-01T12:21:58;6.40;;;3.47;;
75847;SDS011;65750;47.540;19.090;2023-03-01T12:27:29;5.47;;;3.67;;
75847;SDS011;65750;47.540;19.090;2023-03-01T12:30:09;5.37;;;3.50;;
75847;SDS011;65750;47.540;19.090;2023-03-01T12:32:47;5.72;;;3.47;;
75847;SDS011;65750;47.540;19.090;2023-03-01T12:35:34;5.43;;;3.43;;
75847;SDS011;65750;47.540;19.090;2023-03-01T12:38:08;6.10;;;3.40;;
75847;SDS011;65750;47.540;19.090;2023-03-01T12:40:46;5.65;;;3.53;;
75847;SDS011;65750;47.540;19.090;2023-03-01T12:43:33;5.90;;;4.00;;
75847;SDS011;65750;47.540;19.090;2023-03-01T12:46:09;6.05;;;3.62;;
75847;SDS011;65750;47.540;19.090;2023-03-01T12:48:41;7.33;;;4.63;;
75847;SDS011;65750;47.540;19.090;2023-03-01T12:51:13;5.95;;;3.78;;
75847;SDS011;65750;47.540;19.090;2023-03-01T12:53:44;5.82;;;3.85;;
75847;SDS011;65750;47.540;19.090;2023-03-01T12:56:15;6.00;;;4.03;;
75847;SDS011;65750;47.540;19.090;2023-03-01T12:58:46;5.95;;;3.90;;
75847;SDS011;65750;47.540;19.090;2023-03-01T13:01:21;8.07;;;4.27;;
75847;SDS011;65750;47.540;19.090;2023-03-01T13:04:06;6.30;;;3.97;;
75847;SDS011;65750;47.540;19.090;2023-03-01T13:06:40;7.15;;;3.90;;
75847;SDS011;65750;47.540;19.090;2023-03-01T13:09:14;6.60;;;3.75;;
75847;SDS011;65750;47.540;19.090;2023-03-01T13:11:48;6.35;;;3.70;;
75847;SDS011;65750;47.540;19.090;2023-03-01T13:17:02;6.68;;;3.95;;
75847;SDS011;65750;47.540;19.090;2023-03-01T13:19:32;5.95;;;4.00;;
75847;SDS011;65750;47.540;19.090;2023-03-01T13:22:01;6.85;;;4.00;;
75847;SDS011;65750;47.540;19.090;2023-03-01T13:25:10;6.07;;;3.87;;
75847;SDS011;65750;47.540;19.090;2023-03-01T13:27:41;6.10;;;3.80;;
75847;SDS011;65750;47.540;19.090;2023-03-01T13:36:10;5.80;;;3.55;;
75847;SDS011;65750;47.540;19.090;2023-03-01T13:38:44;6.22;;;3.97;;
75847;SDS011;65750;47.540;19.090;2023-03-01T13:41:13;6.63;;;3.63;;
75847;SDS011;65750;47.540;19.090;2023-03-01T13:43:42;5.18;;;3.70;;
75847;SDS011;65750;47.540;19.090;2023-03-01T13:46:11;5.35;;;3.55;;
75847;SDS011;65750;47.540;19.090;2023-03-01T13:48:42;7.00;;;3.95;;
75847;SDS011;65750;47.540;19.090;2023-03-01T13:51:11;5.40;;;3.70;;
75847;SDS011;65750;47.540;19.090;2023-03-01T13:53:40;6.30;;;3.80;;
75847;SDS011;65750;47.540;19.090;2023-03-01T13:56:11;5.75;;;3.53;;
75847;SDS011;65750;47.540;19.090;2023-03-01T13:58:50;6.05;;;3.42;;
75847;SDS011;65750;47.540;19.090;2023-03-01T14:01:26;6.68;;;4.00;;
75847;SDS011;65750;47.540;19.090;2023-03-01T14:03:54;5.87;;;3.65;;
75847;SDS011;65750;47.540;19.090;2023-03-01T14:06:23;5.57;;;3.60;;
75847;SDS011;65750;47.540;19.090;2023-03-01T14:08:52;6.50;;;4.30;;
75847;SDS011;65750;47.540;19.090;2023-03-01T14:11:32;5.47;;;3.58;;
75847;SDS011;65750;47.540;19.090;2023-03-01T14:14:19;8.98;;;3.92;;
75847;SDS011;65750;47.540;19.090;2023-03-01T14:20:19;19.37;;;5.70;;
75847;SDS011;65750;47.540;19.090;2023-03-01T14:22:48;15.13;;;6.00;;
75847;SDS011;65750;47.540;19.090;2023-03-01T14:25:17;14.80;;;5.62;;
75847;SDS011;65750;47.540;19.090;2023-03-01T14:27:51;17.15;;;5.70;;
75847;SDS011;65750;47.540;19.090;2023-03-01T14:30:24;16.25;;;5.87;;
75847;SDS011;65750;47.540;19.090;2023-03-01T14:32:54;15.83;;;5.57;;
75847;SDS011;65750;47.540;19.090;2023-03-01T14:35:23;16.10;;;6.07;;
75847;SDS011;65750;47.540;19.090;2023-03-01T14:37:51;17.20;;;5.65;;
75847;SDS011;65750;47.540;19.090;2023-03-01T14:40:23;14.45;;;5.62;;
75847;SDS011;65750;47.540;19.090;2023-03-01T14:42:52;17.40;;;5.87;;
75847;SDS011;65750;47.540;19.090;2023-03-01T14:45:19;13.83;;;5.40;;
75847;SDS011;65750;47.540;19.090;2023-03-01T14:47:48;13.23;;;5.70;;
75847;SDS011;65750;47.540;19.090;2023-03-01T14:50:19;13.90;;;5.30;;
75847;SDS011;65750;47.540;19.090;2023-03-01T14:52:49;11.55;;;5.50;;
75847;SDS011;65750;47.540;19.090;2023-03-01T14:55:19;14.23;;;5.32;;
75847;SDS011;65750;47.540;19.090;2023-03-01T14:57:48;15.10;;;5.87;;
75847;SDS011;65750;47.540;19.090;2023-03-01T15:00:17;12.15;;;5.47;;
75847;SDS011;65750;47.540;19.090;2023-03-01T15:02:45;12.27;;;4.80;;
75847;SDS011;65750;47.540;19.090;2023-03-01T15:05:18;11.20;;;5.40;;
75847;SDS011;65750;47.540;19.090;2023-03-01T15:07:48;12.75;;;5.00;;
75847;SDS011;65750;47.540;19.090;2023-03-01T15:10:17;11.43;;;5.53;;